createdAt,value
2018-04-08T00:00:59.771Z,13.27
2018-04-08T00:03:27.317Z,12.07
2018-04-08T00:05:54.822Z,12.00
2018-04-08T00:08:22.277Z,12.00
2018-04-08T00:10:49.733Z,13.33
2018-04-08T00:13:17.200Z,15.70
2018-04-08T00:15:44.665Z,13.17
2018-04-08T00:18:12.891Z,12.87
2018-04-08T00:20:40.360Z,13.10
2018-04-08T00:23:07.838Z,13.43
2018-04-08T00:25:35.293Z,13.77
2018-04-08T00:28:02.763Z,12.97
2018-04-08T00:30:30.986Z,13.67
2018-04-08T00:32:58.445Z,11.83
2018-04-08T00:35:25.926Z,13.70
2018-04-08T00:37:53.390Z,14.67
2018-04-08T00:40:20.853Z,14.80
2018-04-08T00:42:48.315Z,14.97
2018-04-08T00:45:15.777Z,15.27
2018-04-08T00:47:44.016Z,14.60
2018-04-08T00:50:12.493Z,16.23
2018-04-08T00:52:39.963Z,16.70
2018-04-08T00:55:07.430Z,14.77
2018-04-08T00:57:34.928Z,16.17
2018-04-08T01:00:02.387Z,17.87
2018-04-08T01:02:29.858Z,15.20
2018-04-08T01:04:57.321Z,14.90
2018-04-08T01:07:24.778Z,16.40
2018-04-08T01:09:52.238Z,15.43
2018-04-08T01:12:20.718Z,14.60
2018-04-08T01:14:48.172Z,14.50
2018-04-08T01:17:15.650Z,16.60
2018-04-08T01:19:44.052Z,15.10
2018-04-08T01:22:11.522Z,14.80
2018-04-08T01:24:39.752Z,16.33
2018-04-08T01:27:07.231Z,15.67
2018-04-08T01:29:35.190Z,15.23
2018-04-08T01:32:02.676Z,16.20
2018-04-08T01:34:30.145Z,17.17
2018-04-08T01:36:58.357Z,16.37
2018-04-08T01:39:25.825Z,16.63
2018-04-08T01:41:53.295Z,18.70
2018-04-08T01:44:20.762Z,18.10
2018-04-08T01:46:48.222Z,18.53
2018-04-08T01:49:16.045Z,18.83
2018-04-08T01:51:43.537Z,19.03
2018-04-08T01:54:10.961Z,18.57
2018-04-08T01:56:38.434Z,18.20
2018-04-08T01:59:05.889Z,17.70
2018-04-08T02:01:33.349Z,17.40
2018-04-08T02:04:00.825Z,18.27
2018-04-08T02:06:28.290Z,18.87
2018-04-08T02:08:56.541Z,18.03
2018-04-08T02:11:24.009Z,18.63
2018-04-08T02:13:51.471Z,20.10
2018-04-08T02:16:19.030Z,19.17
2018-04-08T02:18:46.503Z,19.63
2018-04-08T02:21:14.762Z,17.83
2018-04-08T02:23:42.317Z,19.50
2018-04-08T02:26:09.786Z,18.20
2018-04-08T02:28:37.250Z,20.47
2018-04-08T02:31:05.482Z,18.33
2018-04-08T02:33:32.984Z,18.20
2018-04-08T02:36:00.451Z,20.20
2018-04-08T02:38:28.699Z,19.10
2018-04-08T02:40:56.154Z,19.10
2018-04-08T02:43:23.624Z,21.47
2018-04-08T02:45:51.082Z,19.33
2018-04-08T02:48:19.318Z,21.83
2018-04-08T02:50:46.783Z,21.33
2018-04-08T02:53:14.246Z,22.30
2018-04-08T02:55:41.722Z,22.67
2018-04-08T02:58:09.190Z,23.40
2018-04-08T03:00:37.422Z,21.13
2018-04-08T03:03:04.909Z,21.60
2018-04-08T03:05:33.182Z,23.37
2018-04-08T03:08:01.404Z,22.40
2018-04-08T03:10:28.853Z,21.97
2018-04-08T03:12:57.090Z,22.47
2018-04-08T03:15:24.556Z,23.27
2018-04-08T03:17:52.010Z,26.00
2018-04-08T03:20:20.259Z,26.20
2018-04-08T03:22:47.712Z,27.77
2018-04-08T03:25:15.170Z,27.10
2018-04-08T03:27:42.634Z,28.47
2018-04-08T03:30:10.107Z,28.03
2018-04-08T03:32:37.558Z,27.03
2018-04-08T03:35:05.025Z,27.87
2018-04-08T03:37:32.482Z,29.50
2018-04-08T03:39:59.938Z,29.10
2018-04-08T03:42:28.203Z,28.53
2018-04-08T03:44:55.666Z,28.80
2018-04-08T03:47:23.122Z,29.47
2018-04-08T03:49:50.605Z,29.03
2018-04-08T03:52:18.075Z,29.93
2018-04-08T03:54:45.536Z,30.40
2018-04-08T03:57:13.018Z,27.77
2018-04-08T03:59:40.490Z,29.97
2018-04-08T04:02:07.941Z,29.07
2018-04-08T04:04:35.937Z,29.00
2018-04-08T04:07:03.393Z,30.73
2018-04-08T04:09:31.638Z,30.10
2018-04-08T04:11:59.119Z,30.00
2018-04-08T04:14:26.583Z,30.90
2018-04-08T04:16:54.047Z,31.93
2018-04-08T04:19:33.389Z,32.40
2018-04-08T04:22:13.606Z,32.10
2018-04-08T04:25:01.861Z,30.60
2018-04-08T04:27:29.325Z,32.03
2018-04-08T04:29:56.785Z,32.30
2018-04-08T04:32:24.395Z,32.27
2018-04-08T04:34:51.862Z,32.70
2018-04-08T04:37:19.326Z,32.97
2018-04-08T04:39:46.790Z,33.50
2018-04-08T04:42:14.257Z,32.57
2018-04-08T04:44:43.222Z,33.07
2018-04-08T04:47:10.685Z,35.13
2018-04-08T04:49:38.148Z,34.30
2018-04-08T04:52:05.638Z,36.67
2018-04-08T04:54:34.023Z,36.17
2018-04-08T04:57:01.520Z,34.23
2018-04-08T04:59:28.985Z,34.07
2018-04-08T05:01:56.457Z,37.17
2018-04-08T05:04:23.939Z,34.30
2018-04-08T05:06:51.385Z,37.87
2018-04-08T05:09:18.865Z,38.93
2018-04-08T05:11:47.098Z,35.00
2018-04-08T05:14:15.082Z,36.17
2018-04-08T05:16:43.319Z,37.50
2018-04-08T05:19:10.780Z,39.10
2018-04-08T05:21:38.240Z,35.17
2018-04-08T05:24:05.701Z,34.87
2018-04-08T05:26:33.162Z,36.33
2018-04-08T05:29:00.632Z,36.13
2018-04-08T05:31:28.109Z,32.07
2018-04-08T05:33:56.282Z,35.97
2018-04-08T05:36:23.731Z,32.20
2018-04-08T05:38:51.209Z,34.70
2018-04-08T05:41:18.661Z,33.93
2018-04-08T05:43:46.904Z,35.57
2018-04-08T05:46:14.381Z,34.30
2018-04-08T05:48:41.836Z,34.70
2018-04-08T05:51:09.294Z,31.57
2018-04-08T05:53:36.853Z,34.07
2018-04-08T05:56:04.314Z,33.47
2018-04-08T05:58:31.773Z,33.17
2018-04-08T06:00:59.250Z,33.80
2018-04-08T06:03:27.494Z,32.53
2018-04-08T06:05:55.794Z,32.20
2018-04-08T06:08:24.038Z,32.47
2018-04-08T06:10:52.310Z,32.83
2018-04-08T06:13:19.773Z,33.10
2018-04-08T06:15:47.241Z,30.90
2018-04-08T06:18:14.809Z,30.70
2018-04-08T06:20:42.254Z,31.50
2018-04-08T06:23:09.725Z,29.80
2018-04-08T06:25:37.952Z,29.50
2018-04-08T06:28:05.414Z,30.70
2018-04-08T06:30:32.894Z,29.33
2018-04-08T06:33:00.362Z,25.80
2018-04-08T06:35:27.815Z,26.93
2018-04-08T06:37:55.289Z,27.00
2018-04-08T06:40:23.602Z,27.53
2018-04-08T06:42:51.415Z,25.20
2018-04-08T06:45:18.987Z,26.17
2018-04-08T06:47:47.212Z,27.43
2018-04-08T06:50:14.677Z,26.90
2018-04-08T06:52:42.167Z,27.07
2018-04-08T06:55:09.627Z,26.47
2018-04-08T06:57:37.086Z,25.87
2018-04-08T07:00:05.354Z,25.17
2018-04-08T07:02:33.721Z,25.17
2018-04-08T07:05:01.198Z,22.30
2018-04-08T07:07:28.658Z,24.40
2018-04-08T07:09:56.887Z,23.87
2018-04-08T07:12:24.346Z,22.37
2018-04-08T07:14:52.682Z,23.63
2018-04-08T07:17:20.906Z,21.97
2018-04-08T07:19:48.366Z,23.53
2018-04-08T07:22:15.873Z,21.90
2018-04-08T07:24:43.385Z,22.47
2018-04-08T07:27:10.790Z,22.33
2018-04-08T07:29:38.282Z,22.43
2018-04-08T07:32:05.852Z,22.20
2018-04-08T07:34:33.306Z,21.57
2018-04-08T07:37:00.791Z,22.80
2018-04-08T07:39:28.249Z,21.43
2018-04-08T07:41:55.718Z,21.20
2018-04-08T07:44:23.953Z,22.77
2018-04-08T07:46:51.414Z,20.47
2018-04-08T07:49:18.878Z,21.10
2018-04-08T07:51:46.359Z,19.60
2018-04-08T07:54:14.606Z,20.27
2018-04-08T07:56:42.075Z,19.00
2018-04-08T07:59:09.607Z,18.00
2018-04-08T08:01:37.793Z,20.67
2018-04-08T08:04:05.241Z,18.73
2018-04-08T08:06:32.718Z,19.20
2018-04-08T08:09:00.171Z,20.63
2018-04-08T08:11:28.439Z,19.40
2018-04-08T08:13:55.905Z,19.80
2018-04-08T08:16:23.362Z,18.07
2018-04-08T08:18:50.826Z,17.50
2018-04-08T08:21:18.298Z,19.30
2018-04-08T08:23:46.530Z,17.30
2018-04-08T08:26:14.009Z,17.63
2018-04-08T08:28:41.498Z,17.43
2018-04-08T08:31:09.110Z,16.30
2018-04-08T08:33:36.567Z,16.20
2018-04-08T08:36:04.037Z,16.20
2018-04-08T08:38:31.504Z,15.47
2018-04-08T08:40:58.968Z,15.50
2018-04-08T08:43:26.510Z,16.70
2018-04-08T08:45:55.231Z,15.43
2018-04-08T08:48:23.466Z,14.10
2018-04-08T08:50:50.962Z,14.30
2018-04-08T08:53:18.430Z,14.53
2018-04-08T08:55:45.907Z,16.17
2018-04-08T08:58:13.386Z,14.67
2018-04-08T09:00:40.841Z,14.63
2018-04-08T09:03:08.302Z,15.60
2018-04-08T09:05:36.710Z,14.70
2018-04-08T09:08:04.934Z,14.60
2018-04-08T09:10:32.397Z,14.50
2018-04-08T09:12:59.869Z,14.37
2018-04-08T09:15:27.337Z,14.03
2018-04-08T09:17:54.830Z,14.23
2018-04-08T09:20:37.958Z,14.00
2018-04-08T09:23:09.911Z,13.70
2018-04-08T09:25:38.731Z,15.47
2018-04-08T09:28:06.195Z,15.50
2018-04-08T09:30:34.209Z,14.07
2018-04-08T09:33:01.783Z,14.97
2018-04-08T09:35:29.224Z,14.30
2018-04-08T09:37:56.681Z,15.07
2018-04-08T09:40:24.148Z,14.50
2018-04-08T09:42:52.379Z,12.87
2018-04-08T09:45:19.858Z,12.93
2018-04-08T09:47:48.110Z,12.60
2018-04-08T09:50:16.660Z,12.83
2018-04-08T09:52:44.159Z,11.77
2018-04-08T09:55:11.630Z,11.50
2018-04-08T09:57:39.099Z,14.10
2018-04-08T10:00:06.604Z,12.73
2018-04-08T10:02:36.698Z,11.80
2018-04-08T10:05:04.157Z,12.33
2018-04-08T10:07:31.643Z,13.27
2018-04-08T10:09:59.102Z,14.03
2018-04-08T10:12:26.953Z,13.50
2018-04-08T10:14:54.419Z,12.00
2018-04-08T10:17:21.882Z,14.00
2018-04-08T10:19:49.365Z,11.77
2018-04-08T10:22:16.834Z,12.83
2018-04-08T10:24:44.308Z,13.20
2018-04-08T10:27:12.561Z,13.20
2018-04-08T10:29:40.030Z,12.90
2018-04-08T10:32:07.503Z,13.07
2018-04-08T10:34:35.738Z,12.40
2018-04-08T10:37:03.212Z,12.73
2018-04-08T10:39:30.671Z,12.77
2018-04-08T10:41:58.144Z,13.97
2018-04-08T10:44:26.385Z,13.90
2018-04-08T10:46:53.906Z,13.00
2018-04-08T10:49:21.376Z,14.90
2018-04-08T10:51:48.891Z,13.20
2018-04-08T10:54:16.325Z,12.60
2018-04-08T10:56:43.790Z,13.97
2018-04-08T10:59:12.021Z,13.03
2018-04-08T11:01:39.484Z,14.30
2018-04-08T11:04:06.963Z,13.83
2018-04-08T11:06:34.421Z,14.07
2018-04-08T11:09:01.890Z,13.47
2018-04-08T11:11:29.367Z,15.00
2018-04-08T11:13:57.594Z,14.30
2018-04-08T11:16:25.056Z,14.13
2018-04-08T11:18:52.527Z,14.30
2018-04-08T11:21:19.999Z,15.10
2018-04-08T11:23:47.463Z,14.10
2018-04-08T11:26:15.722Z,15.80
2018-04-08T11:28:43.182Z,15.20
2018-04-08T11:31:10.639Z,13.63
2018-04-08T11:33:38.106Z,16.87
2018-04-08T11:36:06.343Z,16.47
2018-04-08T11:38:33.825Z,14.47
2018-04-08T11:41:01.291Z,14.30
2018-04-08T11:43:29.525Z,15.83
2018-04-08T11:45:56.981Z,14.83
2018-04-08T11:48:24.572Z,15.63
2018-04-08T11:50:52.034Z,14.53
2018-04-08T11:53:19.501Z,16.17
2018-04-08T11:55:48.738Z,14.30
2018-04-08T11:58:17.006Z,15.70
2018-04-08T12:00:44.465Z,14.00
2018-04-08T12:03:11.939Z,14.73
2018-04-08T12:05:39.397Z,15.63
2018-04-08T12:08:06.858Z,15.47
2018-04-08T12:10:34.337Z,15.20
2018-04-08T12:13:01.802Z,13.57
2018-04-08T12:15:29.253Z,14.63
2018-04-08T12:17:56.734Z,13.87
2018-04-08T12:20:24.205Z,14.07
2018-04-08T12:22:51.664Z,13.83
2018-04-08T12:25:19.166Z,14.67
2018-04-08T12:27:46.634Z,14.27
2018-04-08T12:30:14.934Z,13.57
2018-04-08T12:32:43.185Z,13.43
2018-04-08T12:35:10.645Z,13.10
2018-04-08T12:37:38.131Z,14.07
2018-04-08T12:40:06.367Z,13.50
2018-04-08T12:42:34.688Z,11.80
2018-04-08T12:45:02.913Z,13.80
2018-04-08T12:47:30.397Z,10.40
2018-04-08T12:49:58.625Z,11.70
2018-04-08T12:52:26.086Z,10.37
2018-04-08T12:54:54.157Z,10.00
2018-04-08T12:57:21.644Z,9.97
2018-04-08T12:59:49.074Z,10.43
2018-04-08T13:02:16.545Z,9.80
2018-04-08T13:04:44.014Z,9.50
2018-04-08T13:07:11.474Z,10.70
2018-04-08T13:09:38.947Z,10.13
2018-04-08T13:12:07.231Z,9.33
2018-04-08T13:14:35.977Z,9.60
2018-04-08T13:17:03.446Z,9.80
2018-04-08T13:19:30.910Z,11.33
2018-04-08T13:21:58.373Z,10.30
2018-04-08T13:24:25.860Z,11.03
2018-04-08T13:26:53.317Z,10.53
2018-04-08T13:29:20.779Z,10.93
2018-04-08T13:31:48.253Z,10.33
2018-04-08T13:34:15.715Z,11.87
2018-04-08T13:36:43.173Z,11.10
2018-04-08T13:39:10.648Z,11.20
2018-04-08T13:41:38.111Z,10.80
2018-04-08T13:44:05.598Z,9.87
2018-04-08T13:46:33.858Z,12.37
2018-04-08T13:49:01.328Z,11.37
2018-04-08T13:51:29.560Z,11.03
2018-04-08T13:53:57.068Z,11.27
2018-04-08T13:56:24.521Z,10.63
2018-04-08T13:58:52.751Z,12.20
2018-04-08T14:01:20.241Z,10.83
2018-04-08T14:03:48.465Z,9.63
2018-04-08T14:06:16.731Z,23.07
2018-04-08T14:08:44.202Z,26.70
2018-04-08T14:11:11.663Z,24.77
2018-04-08T14:13:39.129Z,24.60
2018-04-08T14:16:07.368Z,24.10
2018-04-08T14:18:34.823Z,23.67
2018-04-08T14:21:02.273Z,25.10
2018-04-08T14:23:29.754Z,24.73
2018-04-08T14:25:57.227Z,25.83
2018-04-08T14:28:24.682Z,25.13
2018-04-08T14:30:52.152Z,25.53
2018-04-08T14:33:19.625Z,25.43
2018-04-08T14:35:47.075Z,22.30
2018-04-08T14:38:15.220Z,22.50
2018-04-08T14:40:42.672Z,23.30
2018-04-08T14:43:10.153Z,26.50
2018-04-08T14:45:37.645Z,26.40
2018-04-08T14:48:05.867Z,25.27
2018-04-08T14:50:33.329Z,25.67
2018-04-08T14:53:00.804Z,26.20
2018-04-08T14:55:28.265Z,25.60
2018-04-08T14:57:56.498Z,26.10
2018-04-08T15:00:23.987Z,24.70
2018-04-08T15:02:51.449Z,23.47
2018-04-08T15:05:19.855Z,23.03
2018-04-08T15:07:48.102Z,22.27
2018-04-08T15:10:15.558Z,25.33
2018-04-08T15:12:43.018Z,22.30
2018-04-08T15:15:10.492Z,25.10
2018-04-08T15:17:38.716Z,23.83
2018-04-08T15:20:06.183Z,25.00
2018-04-08T15:22:34.297Z,26.07
2018-04-08T15:25:02.523Z,26.60
2018-04-08T15:27:29.981Z,25.50
2018-04-08T15:29:57.521Z,24.90
2018-04-08T15:32:25.026Z,25.80
2018-04-08T15:34:53.263Z,25.73
2018-04-08T15:37:20.730Z,24.53
2018-04-08T15:39:48.197Z,25.37
2018-04-08T15:42:15.676Z,24.43
2018-04-08T15:44:43.154Z,22.80
2018-04-08T15:47:11.378Z,23.33
2018-04-08T15:49:38.843Z,23.30
2018-04-08T15:52:06.317Z,22.20
2018-04-08T15:54:33.774Z,22.60
2018-04-08T15:57:01.234Z,22.83
2018-04-08T15:59:29.473Z,23.73
2018-04-08T16:01:56.937Z,25.43
2018-04-08T16:04:24.394Z,24.70
2018-04-08T16:06:51.890Z,24.00
2018-04-08T16:09:19.376Z,23.50
2018-04-08T16:11:47.590Z,24.10
2018-04-08T16:14:15.128Z,24.60
2018-04-08T16:16:42.605Z,22.33
2018-04-08T16:19:10.061Z,21.83
2018-04-08T16:21:37.541Z,24.80
2018-04-08T16:24:04.989Z,22.00
2018-04-08T16:26:32.455Z,19.90
2018-04-08T16:28:59.938Z,21.17
2018-04-08T16:31:27.401Z,22.70
2018-04-08T16:33:54.941Z,23.60
2018-04-08T16:36:23.173Z,21.73
2018-04-08T16:38:50.833Z,23.20
2018-04-08T16:41:18.309Z,24.20
2018-04-08T16:43:45.803Z,22.47
2018-04-08T16:46:14.034Z,23.50
2018-04-08T16:48:41.501Z,23.00
2018-04-08T16:51:08.982Z,22.00
2018-04-08T16:53:37.209Z,21.33
2018-04-08T16:56:04.853Z,20.83
2018-04-08T16:58:32.315Z,22.87
2018-04-08T17:00:59.914Z,22.60
2018-04-08T17:03:27.393Z,23.13
2018-04-08T17:05:55.647Z,22.60
2018-04-08T17:08:23.345Z,22.60
2018-04-08T17:10:50.854Z,20.70
2018-04-08T17:13:18.329Z,23.87
2018-04-08T17:15:45.826Z,21.47
2018-04-08T17:18:13.283Z,23.23
2018-04-08T17:20:40.745Z,22.80
2018-04-08T17:23:08.230Z,23.13
2018-04-08T17:25:36.478Z,23.10
2018-04-08T17:28:03.934Z,24.87
2018-04-08T17:30:31.430Z,24.20
2018-04-08T17:33:00.406Z,23.27
2018-04-08T17:35:27.877Z,24.67
2018-04-08T17:37:55.369Z,24.30
2018-04-08T17:40:23.598Z,23.80
2018-04-08T17:42:51.061Z,23.40
2018-04-08T17:45:18.556Z,25.13
2018-04-08T17:47:46.794Z,25.10
2018-04-08T17:50:14.315Z,25.37
2018-04-08T17:52:41.802Z,25.50
2018-04-08T17:55:09.275Z,26.10
2018-04-08T17:57:37.348Z,23.27
2018-04-08T18:00:04.825Z,24.93
2018-04-08T18:02:33.085Z,24.33
2018-04-08T18:05:00.551Z,24.60
2018-04-08T18:07:28.035Z,24.07
2018-04-08T18:09:56.319Z,22.40
2018-04-08T18:12:23.806Z,24.10
2018-04-08T18:14:51.313Z,22.80
2018-04-08T18:17:19.577Z,24.23
2018-04-08T18:19:47.825Z,23.00
2018-04-08T18:22:15.338Z,22.70
2018-04-08T18:24:42.818Z,22.80
2018-04-08T18:27:10.294Z,22.47
2018-04-08T18:29:37.758Z,22.17
2018-04-08T18:32:05.314Z,22.57
2018-04-08T18:34:32.794Z,26.03
2018-04-08T18:37:00.257Z,22.87
2018-04-08T18:39:27.825Z,24.60
2018-04-08T18:41:55.302Z,24.30
2018-04-08T18:44:22.769Z,25.17
2018-04-08T18:46:50.293Z,25.57
2018-04-08T18:49:19.397Z,25.10
2018-04-08T18:51:47.649Z,26.73
2018-04-08T18:54:15.122Z,25.30
2018-04-08T18:56:43.362Z,26.63
2018-04-08T18:59:11.622Z,26.07
2018-04-08T19:01:39.136Z,27.90
2018-04-08T19:04:07.431Z,26.70
2018-04-08T19:06:35.570Z,27.40
2018-04-08T19:09:03.057Z,26.20
2018-04-08T19:11:30.540Z,25.30
2018-04-08T19:13:58.001Z,27.60
2018-04-08T19:16:25.507Z,27.70
2018-04-08T19:18:53.740Z,27.80
2018-04-08T19:21:22.032Z,28.73
2018-04-08T19:23:50.521Z,30.50
2018-04-08T19:26:18.875Z,30.60
2018-04-08T19:28:46.329Z,28.53
2018-04-08T19:31:13.806Z,28.40
2018-04-08T19:33:41.458Z,28.00
2018-04-08T19:36:08.935Z,30.70
2018-04-08T19:38:36.424Z,30.67
2018-04-08T19:41:03.886Z,28.57
2018-04-08T19:43:31.376Z,29.07
2018-04-08T19:46:00.973Z,30.50
2018-04-08T19:48:28.449Z,28.60
2018-04-08T19:50:55.944Z,31.13
2018-04-08T19:53:24.169Z,30.87
2018-04-08T19:55:51.737Z,32.17
2018-04-08T19:58:19.202Z,32.00
2018-04-08T20:00:46.666Z,34.10
2018-04-08T20:03:14.505Z,32.50
2018-04-08T20:05:42.070Z,29.87
2018-04-08T20:08:09.534Z,31.80
2018-04-08T20:10:37.014Z,32.57
2018-04-08T20:13:04.542Z,31.63
2018-04-08T20:15:32.918Z,29.70
2018-04-08T20:18:00.691Z,31.53
2018-04-08T20:20:28.205Z,30.40
2018-04-08T20:22:55.777Z,31.83
2018-04-08T20:25:23.277Z,29.87
2018-04-08T20:27:50.783Z,28.80
2018-04-08T20:30:18.237Z,29.63
2018-04-08T20:32:45.709Z,32.30
2018-04-08T20:35:13.188Z,31.60
2018-04-08T20:37:40.649Z,32.93
2018-04-08T20:40:08.138Z,32.70
2018-04-08T20:42:36.364Z,32.17
2018-04-08T20:45:03.826Z,33.50
2018-04-08T20:47:31.301Z,29.00
2018-04-08T20:49:58.773Z,29.73
2018-04-08T20:52:26.233Z,31.23
2018-04-08T20:54:53.714Z,30.43
2018-04-08T20:57:21.943Z,29.93
2018-04-08T20:59:49.413Z,31.90
2018-04-08T21:02:16.890Z,33.93
2018-04-08T21:04:45.118Z,31.43
2018-04-08T21:07:12.582Z,35.37
2018-04-08T21:09:40.058Z,33.57
2018-04-08T21:12:07.528Z,32.13
2018-04-08T21:14:35.754Z,29.60
2018-04-08T21:17:03.218Z,31.77
2018-04-08T21:19:30.691Z,30.40
2018-04-08T21:21:58.159Z,29.93
2018-04-08T21:24:25.740Z,29.17
2018-04-08T21:26:53.179Z,30.47
2018-04-08T21:29:20.648Z,32.77
2018-04-08T21:31:48.890Z,31.47
2018-04-08T21:34:16.377Z,32.17
2018-04-08T21:36:43.883Z,31.10
2018-04-08T21:39:11.339Z,31.83
2018-04-08T21:41:38.895Z,29.83
2018-04-08T21:44:06.348Z,33.97
2018-04-08T21:46:33.800Z,34.10
2018-04-08T21:49:01.269Z,33.80
2018-04-08T21:51:28.756Z,33.10
2018-04-08T21:53:56.809Z,35.10
2018-04-08T21:56:24.288Z,34.17
2018-04-08T21:58:51.751Z,34.83
2018-04-08T22:01:19.215Z,36.43
2018-04-08T22:03:46.692Z,35.67
2018-04-08T22:06:15.733Z,33.97
2018-04-08T22:08:43.222Z,33.80
2018-04-08T22:11:10.689Z,35.50
2018-04-08T22:13:38.138Z,32.73
2018-04-08T22:16:05.593Z,34.30
2018-04-08T22:18:33.059Z,34.23
2018-04-08T22:21:01.299Z,33.40
2018-04-08T22:23:28.782Z,33.13
2018-04-08T22:25:56.246Z,34.00
2018-04-08T22:28:24.477Z,36.50
2018-04-08T22:30:51.945Z,33.80
2018-04-08T22:33:19.420Z,32.27
2018-04-08T22:35:46.882Z,36.50
2018-04-08T22:38:14.338Z,34.93
2018-04-08T22:40:41.814Z,37.83
2018-04-08T22:43:10.058Z,35.10
2018-04-08T22:45:37.522Z,35.90
2018-04-08T22:48:04.995Z,36.10
2018-04-08T22:50:33.233Z,38.17
2018-04-08T22:53:00.694Z,39.00
2018-04-08T22:55:28.166Z,32.73
2018-04-08T22:57:56.462Z,37.97
2018-04-08T23:00:25.494Z,38.23
2018-04-08T23:02:52.959Z,35.60
2018-04-08T23:05:20.421Z,36.43
2018-04-08T23:07:47.885Z,35.97
2018-04-08T23:10:16.274Z,37.23
2018-04-08T23:12:43.739Z,36.87
2018-04-08T23:15:11.210Z,37.97
2018-04-08T23:17:39.457Z,37.40
2018-04-08T23:20:06.920Z,39.77
2018-04-08T23:22:34.394Z,37.03
2018-04-08T23:25:01.867Z,35.33
2018-04-08T23:27:30.091Z,35.50
2018-04-08T23:29:57.562Z,36.97
2018-04-08T23:32:25.029Z,40.20
2018-04-08T23:34:52.494Z,35.67
2018-04-08T23:37:19.951Z,38.00
2018-04-08T23:39:47.426Z,36.30
2018-04-08T23:42:15.661Z,38.27
2018-04-08T23:44:43.122Z,39.43
2018-04-08T23:47:10.595Z,36.20
2018-04-08T23:49:38.055Z,35.00
2018-04-08T23:52:05.534Z,37.43
2018-04-08T23:54:33.778Z,36.27
2018-04-08T23:57:01.243Z,38.70
2018-04-08T23:59:28.801Z,36.50
